Tivoli, Pennsylvania
Current Conditions -  °F | °C
As of 11:54 AM on Thursday 27 Nov 2014 (Local Time) from KIPT Reporting Station
Overcast Overcast  
Wind Chill: 34°   Ceiling: 5500
Heat Index: 34°   Visibility: 10mi
Dew Point: 27°   Wind: 3mph
Humidity: 75%   Direction: 270°W
Pressure: 30.02"   Gusts: NA
Location:  41.2862°N, 76.6822°W
Report Text: KIPT 271654Z 27003KT 10SM FEW017 OVC055 01/M03 A3002 RMK AO2 SLP172 T00111028
Loading
Personal Weather Stations






























Interactive Weather Map New forecast layout! Learn more

10-Day Weather Forecast

Advertisements
Track Severe Weather on mobile